Time;durP1;ratioP1;P1;durP2;ratioP2;P2;SDS_P1;SDS_P2;PMS_P1;PMS_P2;Temp;Humidity;BMP_temperature;BMP_pressure;BME280_temperature;BME280_humidity;BME280_pressure;Samples;Min_cycle;Max_cycle;Signal;HPM_P1;HPM_P2
2022/01/13 00:01:37;;;;;;;12.57;8.73;;;5.30;99.90;;;;;;5071714;28;20226;-69
2022/01/13 00:04:08;;;;;;;10.83;8.07;;;5.30;99.90;;;;;;5070773;28;20187;-71
2022/01/13 00:06:37;;;;;;;12.60;9.03;;;5.30;99.90;;;;;;5073673;28;20173;-70
2022/01/13 00:09:10;;;;;;;12.53;8.93;;;5.30;99.90;;;;;;5071640;28;20206;-72
2022/01/13 00:11:36;;;;;;;14.03;8.60;;;5.20;99.90;;;;;;5065107;28;20203;-72
2022/01/13 00:24:44;;;;;;;13.07;8.67;;;5.10;99.90;;;;;;5067753;28;20164;-72
2022/01/13 00:27:16;;;;;;;11.87;8.33;;;5.10;99.90;;;;;;5069721;28;20196;-72
2022/01/13 00:29:44;;;;;;;12.60;8.67;;;5.00;99.90;;;;;;5065485;28;20172;-71
2022/01/13 00:32:14;;;;;;;12.07;8.17;;;5.00;99.90;;;;;;5070168;28;20197;-72
2022/01/13 00:34:40;;;;;;;12.27;7.97;;;5.00;99.90;;;;;;5073117;28;20192;-72
2022/01/13 00:37:06;;;;;;;10.83;7.93;;;5.00;99.90;;;;;;5071926;28;20262;-72
2022/01/13 00:39:32;;;;;;;10.20;7.97;;;5.00;99.90;;;;;;5088816;28;20200;-70
2022/01/13 00:42:00;;;;;;;9.73;7.20;;;4.90;99.90;;;;;;5072500;28;20573;-70
2022/01/13 00:44:34;;;;;;;10.43;6.70;;;5.00;99.90;;;;;;5072859;28;20284;-72
2022/01/13 00:47:04;;;;;;;9.57;6.67;;;5.00;99.90;;;;;;5072572;28;20173;-69
2022/01/13 00:49:30;;;;;;;9.50;6.30;;;5.00;99.90;;;;;;5070193;28;20192;-71
2022/01/13 00:51:57;;;;;;;9.80;6.60;;;5.00;99.90;;;;;;5074844;28;20195;-72
2022/01/13 00:54:23;;;;;;;8.30;5.90;;;5.00;99.90;;;;;;5070897;28;20212;-72
2022/01/13 00:56:49;;;;;;;9.33;6.63;;;5.00;99.90;;;;;;5076910;28;20203;-71
2022/01/13 00:59:18;;;;;;;9.67;6.80;;;5.00;99.90;;;;;;5076175;28;20491;-67
2022/01/13 01:01:47;;;;;;;8.83;6.70;;;5.00;99.90;;;;;;5074975;28;20269;-71
2022/01/13 01:04:17;;;;;;;10.17;6.70;;;5.00;99.90;;;;;;5076236;28;20184;-71
2022/01/13 01:06:46;;;;;;;10.17;7.27;;;5.00;99.90;;;;;;5081314;28;20259;-71
2022/01/13 01:09:16;;;;;;;11.33;7.20;;;5.00;99.90;;;;;;5073059;28;20169;-71
2022/01/13 01:11:47;;;;;;;10.57;7.00;;;5.00;99.90;;;;;;5074559;28;20220;-72
2022/01/13 01:14:14;;;;;;;10.90;7.30;;;5.00;99.90;;;;;;5070609;28;20274;-71
2022/01/13 01:16:41;;;;;;;11.67;8.20;;;5.00;99.90;;;;;;5073843;28;20210;-71
2022/01/13 01:19:12;;;;;;;12.80;8.70;;;5.00;99.90;;;;;;5077845;28;20253;-72
2022/01/13 01:26:43;;;;;;;12.53;8.63;;;5.00;99.90;;;;;;5076230;28;20195;-71
2022/01/13 01:31:53;;;;;;;11.20;8.30;;;5.00;99.90;;;;;;5076233;28;20377;-72
2022/01/13 01:34:36;;;;;;;11.03;8.03;;;5.00;99.90;;;;;;5075603;28;20209;-72
2022/01/13 01:37:03;;;;;;;11.93;8.30;;;5.10;99.90;;;;;;5072419;28;20196;-71
2022/01/13 01:39:30;;;;;;;11.17;7.73;;;5.10;99.90;;;;;;5074222;28;20177;-69
2022/01/13 01:41:59;;;;;;;13.90;9.10;;;5.10;99.90;;;;;;5071997;28;20211;-71
2022/01/13 01:44:33;;;;;;;12.70;9.13;;;5.10;99.90;;;;;;5075963;28;20177;-72
2022/01/13 01:47:00;;;;;;;13.17;8.70;;;5.10;99.90;;;;;;5075741;28;20172;-67
2022/01/13 01:49:31;;;;;;;15.33;10.50;;;5.10;99.90;;;;;;5078781;28;20199;-65
2022/01/13 01:52:03;;;;;;;16.07;11.10;;;5.00;99.90;;;;;;5072175;28;20257;-72
2022/01/13 01:54:33;;;;;;;19.87;11.77;;;5.00;99.90;;;;;;5083081;28;20182;-71
2022/01/13 01:57:00;;;;;;;17.53;11.13;;;5.00;99.90;;;;;;5070372;28;20193;-70
2022/01/13 01:59:29;;;;;;;17.07;10.63;;;5.00;99.90;;;;;;5074835;28;20200;-71
2022/01/13 02:01:58;;;;;;;14.47;9.47;;;5.00;99.90;;;;;;5075851;28;20343;-72
2022/01/13 02:04:27;;;;;;;14.07;9.47;;;5.00;99.90;;;;;;5067648;28;20192;-71
2022/01/13 02:06:59;;;;;;;13.73;9.53;;;5.00;99.90;;;;;;5081690;28;20366;-72
2022/01/13 02:09:25;;;;;;;14.87;10.17;;;5.10;99.90;;;;;;5084269;28;20168;-72
2022/01/13 02:11:59;;;;;;;14.97;10.67;;;5.00;99.90;;;;;;5073788;28;20288;-70
2022/01/13 02:17:10;;;;;;;16.03;10.23;;;5.10;99.90;;;;;;5070661;28;20193;-71
2022/01/13 02:19:38;;;;;;;12.97;9.03;;;5.10;99.90;;;;;;5066559;28;20234;-71
2022/01/13 02:22:10;;;;;;;15.93;10.47;;;5.10;99.90;;;;;;5072285;28;20304;-72
2022/01/13 02:24:37;;;;;;;15.57;10.40;;;5.10;99.90;;;;;;5074138;28;20173;-71
2022/01/13 02:27:06;;;;;;;15.10;10.03;;;5.10;99.90;;;;;;5073222;28;20176;-71
2022/01/13 02:29:32;;;;;;;15.67;10.27;;;5.10;99.90;;;;;;5074548;28;20176;-72
2022/01/13 02:32:01;;;;;;;16.17;11.03;;;5.10;99.90;;;;;;5062613;28;20176;-70
2022/01/13 02:34:27;;;;;;;18.23;11.70;;;5.10;99.90;;;;;;5074120;28;20225;-70
2022/01/13 02:36:57;;;;;;;16.13;10.73;;;5.10;99.90;;;;;;5074642;28;20265;-71
2022/01/13 02:39:24;;;;;;;14.60;9.53;;;5.10;99.90;;;;;;5090426;28;20188;-71
2022/01/13 02:41:53;;;;;;;15.37;9.73;;;5.10;99.90;;;;;;5071068;28;20217;-69
2022/01/13 02:44:21;;;;;;;14.47;9.67;;;5.10;99.90;;;;;;5072079;28;20436;-70
2022/01/13 02:49:19;;;;;;;16.40;10.93;;;5.00;99.90;;;;;;5070898;28;20196;-72
2022/01/13 02:51:47;;;;;;;15.03;10.00;;;5.00;99.90;;;;;;5071504;28;20295;-69
2022/01/13 02:54:15;;;;;;;15.40;10.37;;;5.00;99.90;;;;;;5074345;28;20198;-70
2022/01/13 02:56:42;;;;;;;15.37;10.23;;;5.00;99.90;;;;;;5070688;28;20177;-69
2022/01/13 02:59:08;;;;;;;14.60;9.93;;;5.00;99.90;;;;;;5069691;28;20249;-72
2022/01/13 03:01:36;;;;;;;14.47;9.50;;;5.00;99.90;;;;;;5078759;28;20207;-72
2022/01/13 03:04:06;;;;;;;16.13;10.70;;;5.00;99.90;;;;;;5073793;28;20246;-70
2022/01/13 03:06:35;;;;;;;15.17;10.00;;;5.00;99.90;;;;;;5073231;28;20197;-71
2022/01/13 03:09:06;;;;;;;14.77;9.90;;;5.00;99.90;;;;;;5090226;28;20208;-72
2022/01/13 03:11:37;;;;;;;16.23;10.80;;;5.00;99.90;;;;;;5075863;28;20179;-72
2022/01/13 03:14:10;;;;;;;15.77;10.13;;;5.00;99.90;;;;;;5072084;28;20217;-70
2022/01/13 03:16:39;;;;;;;15.70;9.87;;;4.90;99.90;;;;;;5072051;28;20173;-69
2022/01/13 03:19:05;;;;;;;13.53;10.17;;;4.90;99.90;;;;;;5066022;28;20336;-72
2022/01/13 03:21:30;;;;;;;14.23;9.70;;;4.90;99.90;;;;;;5069850;28;20283;-71
2022/01/13 03:23:59;;;;;;;14.63;9.70;;;4.80;99.90;;;;;;5072854;28;20200;-72
2022/01/13 03:26:29;;;;;;;15.00;9.60;;;4.90;99.90;;;;;;5073532;28;20180;-71
2022/01/13 03:31:43;;;;;;;13.07;9.30;;;4.80;99.90;;;;;;5072374;28;20255;-71
2022/01/13 03:34:09;;;;;;;15.50;10.13;;;4.80;99.90;;;;;;5074206;28;20168;-72
2022/01/13 03:36:37;;;;;;;15.20;9.87;;;4.70;99.90;;;;;;5070370;28;20184;-72
2022/01/13 03:39:05;;;;;;;14.03;9.73;;;4.70;99.90;;;;;;5071454;28;20275;-73
2022/01/13 03:41:33;;;;;;;14.40;10.17;;;4.70;99.90;;;;;;5071478;28;20253;-71
2022/01/13 03:44:05;;;;;;;15.70;9.87;;;4.70;99.90;;;;;;5070717;28;20188;-72
2022/01/13 03:46:36;;;;;;;14.63;9.90;;;4.60;99.90;;;;;;5073259;28;20191;-71
2022/01/13 03:49:02;;;;;;;14.63;10.07;;;4.60;99.90;;;;;;5082607;28;20169;-71
2022/01/13 03:51:55;;;;;;;15.80;10.40;;;4.60;99.90;;;;;;5072120;28;20200;-72
2022/01/13 03:54:35;;;;;;;18.70;11.33;;;4.60;99.90;;;;;;5070714;28;20185;-72
2022/01/13 03:57:27;;;;;;;16.50;10.43;;;4.60;99.90;;;;;;5061104;28;20176;-70
2022/01/13 04:00:13;;;;;;;18.17;11.20;;;4.60;99.90;;;;;;5075922;28;20196;-70
2022/01/13 04:02:41;;;;;;;16.00;10.50;;;4.50;99.90;;;;;;5089607;28;20224;-72
2022/01/13 04:05:10;;;;;;;18.00;10.87;;;4.50;99.90;;;;;;5071413;28;20184;-71
2022/01/13 04:07:41;;;;;;;18.37;11.37;;;4.50;99.90;;;;;;5064138;28;20206;-72
2022/01/13 04:10:22;;;;;;;15.43;10.23;;;4.40;99.90;;;;;;5071248;28;20187;-72
2022/01/13 04:12:47;;;;;;;16.37;9.87;;;4.40;99.90;;;;;;5071030;28;20180;-72
2022/01/13 04:15:15;;;;;;;18.03;10.83;;;4.40;99.90;;;;;;5072897;28;20183;-72
2022/01/13 04:17:45;;;;;;;15.03;10.40;;;4.30;99.90;;;;;;5069157;28;20169;-71
2022/01/13 04:20:13;;;;;;;14.10;9.00;;;4.30;99.90;;;;;;5071665;28;20168;-72
2022/01/13 04:22:41;;;;;;;14.17;10.30;;;4.30;99.90;;;;;;5068044;28;20212;-71
2022/01/13 04:25:07;;;;;;;13.93;9.27;;;4.30;99.90;;;;;;5075609;28;20164;-72
2022/01/13 04:27:41;;;;;;;13.83;9.07;;;4.20;99.90;;;;;;5072412;28;20279;-73
2022/01/13 04:32:44;;;;;;;14.13;9.77;;;4.20;99.90;;;;;;5069599;28;20164;-72
2022/01/13 04:35:12;;;;;;;13.93;9.03;;;4.10;99.90;;;;;;5068212;28;20184;-71
2022/01/13 04:37:41;;;;;;;13.50;9.30;;;4.10;99.90;;;;;;5070752;28;20184;-72
2022/01/13 04:40:10;;;;;;;13.07;9.03;;;4.10;99.90;;;;;;5068844;28;20165;-71
2022/01/13 04:42:37;;;;;;;13.83;9.13;;;4.10;99.90;;;;;;5068612;28;20208;-72
2022/01/13 04:45:05;;;;;;;13.13;9.10;;;4.10;99.90;;;;;;5071382;28;20233;-72
2022/01/13 04:47:33;;;;;;;13.57;9.17;;;4.10;99.90;;;;;;5072751;28;20211;-72
2022/01/13 04:50:02;;;;;;;13.47;9.53;;;4.10;99.90;;;;;;5072566;28;20501;-72
2022/01/13 04:52:29;;;;;;;14.70;9.73;;;4.10;99.90;;;;;;5075434;28;20408;-71
2022/01/13 04:54:55;;;;;;;13.50;9.13;;;4.20;99.90;;;;;;5068183;28;20177;-72
2022/01/13 04:57:21;;;;;;;13.27;9.27;;;4.20;99.90;;;;;;5071708;28;20211;-74
2022/01/13 04:59:49;;;;;;;14.70;9.13;;;4.20;99.90;;;;;;5070289;28;20264;-69
2022/01/13 05:02:17;;;;;;;14.13;9.40;;;4.20;99.90;;;;;;5062093;28;20215;-71
2022/01/13 05:04:42;;;;;;;12.87;9.03;;;4.20;99.90;;;;;;5072231;28;20176;-71
2022/01/13 05:07:08;;;;;;;15.07;10.27;;;4.10;99.90;;;;;;5072122;28;20211;-74
2022/01/13 05:09:36;;;;;;;14.70;8.90;;;4.10;99.90;;;;;;5069156;28;20246;-74
2022/01/13 05:12:02;;;;;;;14.93;9.60;;;4.10;99.90;;;;;;5066472;28;20215;-74
2022/01/13 05:14:33;;;;;;;13.77;9.40;;;4.10;99.90;;;;;;5071709;28;20189;-75
2022/01/13 05:17:09;;;;;;;15.33;11.10;;;4.10;99.90;;;;;;5069756;28;20177;-69
2022/01/13 05:19:45;;;;;;;16.03;10.30;;;4.10;99.90;;;;;;5089232;28;20176;-73
2022/01/13 05:24:38;;;;;;;14.17;10.00;;;4.10;99.90;;;;;;5068107;28;20231;-72
2022/01/13 05:27:05;;;;;;;14.33;10.00;;;4.10;99.90;;;;;;5072405;28;20173;-75
2022/01/13 05:29:33;;;;;;;15.17;10.07;;;4.10;99.90;;;;;;5070929;28;20169;-74
2022/01/13 05:31:58;;;;;;;15.37;9.73;;;4.10;99.90;;;;;;5065488;28;20192;-75
2022/01/13 05:34:26;;;;;;;15.23;9.93;;;4.10;99.90;;;;;;5073254;28;20192;-74
2022/01/13 05:36:52;;;;;;;16.80;11.50;;;4.10;99.90;;;;;;5071749;28;20280;-74
2022/01/13 05:39:18;;;;;;;17.60;11.37;;;4.10;99.90;;;;;;5076443;28;20482;-72
2022/01/13 05:41:44;;;;;;;16.03;10.70;;;4.10;99.90;;;;;;5084152;28;20264;-74
2022/01/13 05:44:09;;;;;;;16.37;9.93;;;4.10;99.90;;;;;;5086475;28;20196;-74
2022/01/13 05:46:37;;;;;;;12.60;8.77;;;4.10;99.90;;;;;;5075792;28;20177;-75
2022/01/13 05:49:05;;;;;;;12.63;9.27;;;4.00;99.90;;;;;;5081951;28;20180;-72
2022/01/13 05:51:30;;;;;;;13.37;8.93;;;4.00;99.90;;;;;;5075913;28;20207;-73
2022/01/13 05:53:56;;;;;;;13.30;8.80;;;4.00;99.90;;;;;;5074309;28;20180;-74
2022/01/13 05:56:23;;;;;;;14.17;9.03;;;4.00;99.90;;;;;;5076012;28;20284;-76
2022/01/13 05:58:51;;;;;;;13.53;9.17;;;4.00;99.90;;;;;;5085907;28;20234;-73
2022/01/13 06:01:19;;;;;;;13.27;9.27;;;4.00;99.90;;;;;;5073769;28;20184;-75
2022/01/13 06:03:46;;;;;;;15.33;9.43;;;4.00;99.90;;;;;;5063829;28;20200;-71
2022/01/13 06:06:12;;;;;;;10.60;8.23;;;4.00;99.90;;;;;;5085883;28;20262;-75
2022/01/13 06:08:40;;;;;;;12.93;9.20;;;4.00;99.90;;;;;;5078289;28;20284;-75
2022/01/13 06:11:05;;;;;;;13.80;9.53;;;4.00;99.90;;;;;;5074249;28;20275;-73
2022/01/13 06:13:36;;;;;;;14.17;9.23;;;4.00;99.90;;;;;;5069866;28;20260;-73
2022/01/13 06:16:01;;;;;;;13.57;9.47;;;4.00;99.90;;;;;;5070434;28;20185;-73
2022/01/13 06:18:28;;;;;;;13.20;9.23;;;4.00;99.90;;;;;;5068210;28;20180;-73
2022/01/13 06:20:56;;;;;;;13.30;8.93;;;3.90;99.90;;;;;;5064948;28;20244;-74
2022/01/13 06:23:22;;;;;;;11.33;8.53;;;3.90;99.90;;;;;;5072969;28;20482;-72
2022/01/13 06:25:47;;;;;;;11.47;8.00;;;3.90;99.90;;;;;;5067359;28;20230;-73
2022/01/13 06:28:13;;;;;;;11.57;8.20;;;3.90;99.90;;;;;;5077680;28;20191;-73
2022/01/13 06:30:41;;;;;;;14.20;9.60;;;3.80;99.90;;;;;;5075670;28;20185;-72
2022/01/13 06:33:09;;;;;;;14.33;9.03;;;3.80;99.90;;;;;;5074180;28;20180;-71
2022/01/13 06:35:36;;;;;;;14.40;9.30;;;3.80;99.90;;;;;;5073744;28;20207;-72
2022/01/13 06:38:01;;;;;;;15.13;10.43;;;3.80;99.90;;;;;;5074918;28;20208;-76
2022/01/13 06:40:29;;;;;;;14.87;9.90;;;3.70;99.90;;;;;;5081729;28;20223;-74
2022/01/13 06:42:55;;;;;;;12.83;8.83;;;3.70;99.90;;;;;;5073439;28;20383;-76
2022/01/13 06:45:21;;;;;;;14.07;9.23;;;3.70;99.90;;;;;;5074665;28;20189;-74
2022/01/13 06:47:49;;;;;;;13.10;8.73;;;3.70;99.90;;;;;;5074313;28;20257;-72
2022/01/13 06:50:17;;;;;;;12.80;8.97;;;3.60;99.90;;;;;;5070923;28;20207;-68
2022/01/13 06:52:44;;;;;;;11.70;8.83;;;3.60;99.90;;;;;;5072611;28;20240;-75
2022/01/13 06:55:12;;;;;;;12.90;8.90;;;3.50;99.90;;;;;;5074414;28;20199;-75
2022/01/13 06:57:38;;;;;;;13.37;9.23;;;3.50;99.90;;;;;;5072850;28;20394;-75
2022/01/13 07:00:04;;;;;;;13.73;9.83;;;3.50;99.90;;;;;;5070645;28;20189;-73
2022/01/13 07:02:31;;;;;;;13.10;9.07;;;3.40;99.90;;;;;;5065944;28;20256;-74
2022/01/13 07:04:59;;;;;;;11.93;8.30;;;3.40;99.90;;;;;;5063124;28;20249;-76
2022/01/13 07:07:34;;;;;;;11.13;8.17;;;3.40;99.90;;;;;;5074601;28;20181;-76
2022/01/13 07:09:59;;;;;;;11.27;7.97;;;3.30;99.90;;;;;;5076564;28;20180;-76
2022/01/13 07:12:25;;;;;;;11.63;7.97;;;3.30;99.90;;;;;;5074806;28;20192;-75
2022/01/13 07:14:51;;;;;;;11.53;7.90;;;3.30;99.90;;;;;;5072181;28;20180;-75
2022/01/13 07:17:18;;;;;;;11.10;7.90;;;3.30;99.90;;;;;;5072871;28;20189;-73
2022/01/13 07:19:47;;;;;;;10.73;7.40;;;3.20;99.90;;;;;;5073474;28;20183;-76
2022/01/13 07:22:16;;;;;;;11.87;8.20;;;3.20;99.90;;;;;;5086264;28;20192;-73
2022/01/13 07:24:44;;;;;;;15.17;8.70;;;3.20;99.90;;;;;;5070777;28;20491;-72
2022/01/13 07:27:13;;;;;;;11.90;7.60;;;3.20;99.90;;;;;;5064647;28;20201;-72
2022/01/13 07:29:42;;;;;;;12.43;8.23;;;3.10;99.90;;;;;;5072884;28;20242;-71
2022/01/13 07:32:11;;;;;;;11.77;8.23;;;3.10;99.90;;;;;;5084816;28;20383;-71
2022/01/13 07:34:37;;;;;;;16.13;10.23;;;3.10;99.90;;;;;;5073562;28;20177;-72
2022/01/13 07:37:03;;;;;;;16.17;10.13;;;3.10;99.90;;;;;;5070539;28;20223;-71
2022/01/13 07:39:29;;;;;;;15.87;10.70;;;3.10;99.90;;;;;;5090483;28;20196;-70
2022/01/13 07:41:54;;;;;;;16.23;10.70;;;3.10;99.90;;;;;;5073619;28;20277;-73
2022/01/13 07:44:22;;;;;;;16.17;9.93;;;3.10;99.90;;;;;;5071643;28;20173;-70
2022/01/13 07:46:48;;;;;;;17.30;9.70;;;3.10;99.90;;;;;;5073334;28;20370;-69
2022/01/13 07:49:16;;;;;;;14.30;9.27;;;3.10;99.90;;;;;;5091852;28;20272;-67
2022/01/13 07:51:44;;;;;;;16.07;9.83;;;3.10;99.90;;;;;;5073226;28;20249;-69
2022/01/13 07:54:12;;;;;;;15.93;10.57;;;3.20;99.90;;;;;;5072288;28;20183;-73
2022/01/13 07:56:40;;;;;;;20.73;12.07;;;3.20;99.90;;;;;;5071992;28;20199;-67
2022/01/13 07:59:06;;;;;;;18.13;11.43;;;3.20;99.90;;;;;;5086027;28;20238;-73
2022/01/13 08:01:36;;;;;;;18.97;11.87;;;3.20;99.90;;;;;;5069645;28;20574;-77
2022/01/13 08:04:01;;;;;;;18.60;10.93;;;3.20;99.90;;;;;;5081616;28;20268;-68
2022/01/13 08:06:29;;;;;;;18.00;11.23;;;3.20;99.90;;;;;;5072748;28;20264;-80
2022/01/13 08:08:55;;;;;;;17.40;10.23;;;3.20;99.90;;;;;;5070370;28;20188;-72
2022/01/13 08:11:21;;;;;;;15.97;10.00;;;3.30;99.90;;;;;;5062434;28;20271;-71
2022/01/13 08:13:49;;;;;;;17.73;10.70;;;3.30;99.90;;;;;;5072364;28;20635;-70
2022/01/13 08:16:17;;;;;;;19.20;11.40;;;3.30;99.90;;;;;;5070712;28;20168;-73
2022/01/13 08:21:26;;;;;;;15.50;10.20;;;3.30;99.90;;;;;;5071049;28;20246;-70
2022/01/13 08:23:52;;;;;;;16.47;10.83;;;3.30;99.90;;;;;;5070205;28;20185;-72
2022/01/13 08:26:19;;;;;;;16.17;10.50;;;3.30;99.90;;;;;;5071284;28;20359;-71
2022/01/13 08:28:44;;;;;;;17.03;10.47;;;3.30;99.90;;;;;;5072489;28;20176;-73
2022/01/13 08:31:10;;;;;;;16.40;10.73;;;3.30;99.90;;;;;;5069579;28;20188;-75
2022/01/13 08:33:35;;;;;;;15.63;10.23;;;3.40;99.90;;;;;;5070318;28;20208;-73
2022/01/13 08:36:02;;;;;;;18.60;12.30;;;3.40;99.90;;;;;;5072429;28;20177;-78
2022/01/13 08:38:28;;;;;;;19.37;12.43;;;3.40;99.90;;;;;;5071384;28;20181;-67
2022/01/13 08:41:00;;;;;;;18.50;11.70;;;3.50;99.90;;;;;;5070260;28;20263;-72
2022/01/13 08:43:29;;;;;;;18.83;11.50;;;3.50;99.90;;;;;;5063714;28;20188;-75
2022/01/13 08:45:55;;;;;;;19.83;12.43;;;3.50;99.90;;;;;;5067040;28;20184;-77
2022/01/13 08:48:24;;;;;;;16.50;11.27;;;3.50;99.90;;;;;;5072600;28;20279;-75
2022/01/13 08:50:51;;;;;;;16.80;11.00;;;3.60;99.90;;;;;;5089141;28;20195;-77
2022/01/13 08:53:24;;;;;;;18.70;11.87;;;3.60;99.90;;;;;;5073600;28;20191;-78
2022/01/13 08:55:51;;;;;;;18.73;10.97;;;3.70;99.90;;;;;;5071226;28;20267;-76
2022/01/13 08:58:22;;;;;;;20.80;12.50;;;3.70;99.90;;;;;;5070784;28;20181;-76
2022/01/13 09:00:50;;;;;;;21.13;13.60;;;3.80;99.90;;;;;;5071234;28;20237;-72
2022/01/13 09:03:18;;;;;;;19.47;12.10;;;3.80;99.90;;;;;;5073280;28;20224;-75
2022/01/13 09:05:47;;;;;;;19.70;12.97;;;3.80;99.90;;;;;;5070966;28;20179;-73
2022/01/13 09:08:15;;;;;;;17.03;10.83;;;3.80;99.90;;;;;;5070320;28;20292;-68
2022/01/13 09:10:43;;;;;;;19.17;11.80;;;3.90;99.90;;;;;;5091130;28;20188;-78
2022/01/13 09:13:14;;;;;;;17.60;11.27;;;3.90;99.90;;;;;;5071766;28;20180;-76
2022/01/13 09:15:45;;;;;;;16.20;10.97;;;4.00;99.90;;;;;;5081662;28;20242;-81
2022/01/13 09:18:17;;;;;;;17.93;11.40;;;4.10;99.90;;;;;;5077167;28;20230;-69
2022/01/13 09:20:46;;;;;;;16.97;10.50;;;4.20;99.90;;;;;;5070567;28;20253;-76
2022/01/13 09:23:13;;;;;;;15.03;10.40;;;4.30;99.90;;;;;;5073981;28;20200;-77
2022/01/13 09:25:39;;;;;;;17.57;11.20;;;4.50;99.90;;;;;;5083824;28;20421;-71
2022/01/13 09:28:08;;;;;;;14.50;10.13;;;4.70;99.90;;;;;;5071962;28;20188;-73
2022/01/13 09:30:35;;;;;;;15.63;10.20;;;4.90;99.90;;;;;;5089124;28;20191;-72
2022/01/13 09:33:00;;;;;;;14.30;9.70;;;5.10;99.90;;;;;;5092068;28;20264;-74
2022/01/13 09:35:26;;;;;;;17.07;10.77;;;5.30;99.90;;;;;;5076353;28;20319;-72
2022/01/13 09:37:56;;;;;;;17.37;12.00;;;5.50;99.90;;;;;;5096520;28;20197;-72
2022/01/13 09:40:25;;;;;;;15.37;10.37;;;5.60;99.90;;;;;;5074973;28;20192;-71
2022/01/13 09:42:52;;;;;;;15.67;10.17;;;5.80;99.90;;;;;;5071328;28;20209;-72
2022/01/13 09:45:18;;;;;;;14.50;10.63;;;5.90;99.90;;;;;;5075681;28;20181;-70
2022/01/13 09:47:45;;;;;;;16.50;11.57;;;6.00;99.90;;;;;;5073033;28;20180;-75
2022/01/13 09:50:16;;;;;;;16.37;11.03;;;6.10;99.90;;;;;;5072954;28;20291;-72
2022/01/13 09:52:42;;;;;;;16.20;10.90;;;6.10;99.90;;;;;;5075184;28;20181;-75
2022/01/13 09:55:13;;;;;;;13.90;9.70;;;6.20;99.90;;;;;;5076986;28;20180;-77
2022/01/13 09:57:46;;;;;;;14.77;10.60;;;6.20;99.90;;;;;;5073588;28;20190;-79
2022/01/13 10:00:15;;;;;;;16.13;11.53;;;6.30;99.90;;;;;;5071992;28;20207;-79
2022/01/13 10:02:43;;;;;;;17.60;12.27;;;6.40;99.90;;;;;;5088396;28;20262;-77
2022/01/13 10:05:09;;;;;;;14.53;10.33;;;6.40;99.90;;;;;;5069290;28;20245;-78
2022/01/13 10:07:43;;;;;;;14.93;10.27;;;6.40;99.90;;;;;;5077817;28;20177;-77
2022/01/13 10:10:16;;;;;;;19.33;12.17;;;6.40;99.90;;;;;;5077242;28;20233;-75
2022/01/13 10:12:47;;;;;;;16.20;11.47;;;6.40;99.90;;;;;;5071678;28;20246;-71
2022/01/13 10:18:03;;;;;;;17.97;12.17;;;6.40;99.90;;;;;;5074950;28;20183;-74
2022/01/13 10:20:29;;;;;;;15.60;10.87;;;6.40;99.90;;;;;;5069171;28;20185;-74
2022/01/13 10:23:09;;;;;;;15.80;10.73;;;6.40;99.90;;;;;;5074932;28;20343;-76
2022/01/13 10:25:43;;;;;;;18.70;12.50;;;6.50;99.90;;;;;;5077104;28;20176;-69
2022/01/13 10:28:15;;;;;;;18.47;12.73;;;6.50;99.90;;;;;;5090713;28;20176;-78
2022/01/13 10:30:45;;;;;;;20.23;13.67;;;6.50;99.90;;;;;;5069862;28;20189;-69
2022/01/13 10:33:30;;;;;;;15.93;10.63;;;6.50;99.90;;;;;;5074628;28;20187;-69
2022/01/13 10:36:10;;;;;;;14.73;9.73;;;6.60;99.90;;;;;;5070135;28;20176;-72
2022/01/13 10:38:57;;;;;;;16.37;10.57;;;6.60;99.90;;;;;;5076186;28;20210;-74
2022/01/13 10:42:15;;;;;;;15.77;10.77;;;6.70;99.90;;;;;;5072060;28;20194;-79
2022/01/13 10:44:20;;;;;;;14.33;9.77;;;6.60;99.90;;;;;;5064995;28;20197;-69
2022/01/13 10:47:04;;;;;;;13.63;9.07;;;6.70;99.90;;;;;;5083312;28;20188;-76
2022/01/13 10:49:37;;;;;;;12.67;8.57;;;6.70;99.90;;;;;;5066489;28;20207;-71
2022/01/13 10:52:27;;;;;;;12.83;8.63;;;6.80;99.90;;;;;;5067837;28;20181;-71
2022/01/13 10:55:10;;;;;;;13.23;9.53;;;6.90;99.90;;;;;;5069719;28;20201;-76
2022/01/13 10:57:41;;;;;;;16.37;10.97;;;7.00;99.90;;;;;;5072824;28;20239;-78
2022/01/13 11:00:30;;;;;;;14.23;9.57;;;7.10;99.90;;;;;;5071488;28;20226;-69
2022/01/13 11:03:09;;;;;;;14.70;10.37;;;7.20;99.90;;;;;;5070101;28;20254;-66
2022/01/13 11:05:49;;;;;;;13.57;9.87;;;7.30;99.90;;;;;;5078291;28;21694;-73
2022/01/13 11:08:25;;;;;;;14.77;9.97;;;7.40;99.90;;;;;;5072907;28;20172;-75
2022/01/13 11:10:58;;;;;;;17.37;11.13;;;7.50;99.90;;;;;;5053989;28;20172;-77
2022/01/13 11:13:27;;;;;;;14.37;9.83;;;7.60;99.90;;;;;;5072795;28;20188;-83
2022/01/13 11:15:55;;;;;;;14.90;10.23;;;7.70;99.90;;;;;;5071984;28;20269;-72
2022/01/13 11:18:25;;;;;;;15.00;10.67;;;7.70;99.90;;;;;;5067030;28;20326;-74
2022/01/13 11:20:51;;;;;;;14.00;9.30;;;7.80;99.90;;;;;;5073638;28;20212;-76
2022/01/13 11:23:21;;;;;;;13.90;9.13;;;7.90;99.90;;;;;;5070008;28;20204;-73
2022/01/13 11:25:54;;;;;;;12.43;8.37;;;8.00;99.90;;;;;;5074008;28;20181;-71
2022/01/13 11:28:20;;;;;;;14.23;9.60;;;8.10;99.90;;;;;;5072358;28;20184;-73
2022/01/13 11:30:50;;;;;;;13.83;10.07;;;8.20;99.90;;;;;;5076127;28;20175;-72
2022/01/13 11:33:23;;;;;;;15.90;10.73;;;8.30;99.90;;;;;;5072122;28;20177;-74
2022/01/13 11:35:57;;;;;;;15.37;10.47;;;8.40;99.90;;;;;;5062464;28;20173;-76
2022/01/13 11:38:26;;;;;;;14.70;10.37;;;8.50;99.90;;;;;;5071497;28;20204;-72
2022/01/13 11:41:01;;;;;;;13.40;9.90;;;8.60;99.90;;;;;;5074617;28;20179;-80
2022/01/13 11:43:32;;;;;;;14.57;9.63;;;8.60;99.90;;;;;;5072939;28;20200;-73
2022/01/13 11:46:15;;;;;;;14.80;10.03;;;8.70;99.90;;;;;;5072299;28;20431;-80
2022/01/13 11:49:00;;;;;;;15.27;11.00;;;8.80;99.90;;;;;;5070441;28;20168;-76
2022/01/13 11:51:58;;;;;;;14.77;9.73;;;8.90;99.90;;;;;;5070972;28;20189;-79
2022/01/13 11:54:35;;;;;;;13.33;9.50;;;9.10;99.90;;;;;;5072726;28;20261;-72
2022/01/13 11:57:15;;;;;;;13.90;9.50;;;9.30;99.90;;;;;;5072642;28;20173;-76
2022/01/13 12:00:06;;;;;;;12.00;9.10;;;9.50;99.90;;;;;;5066807;28;20187;-79
2022/01/13 12:02:41;;;;;;;13.60;9.10;;;9.80;99.90;;;;;;5064912;28;20200;-68
2022/01/13 12:05:16;;;;;;;12.03;8.83;;;10.10;99.90;;;;;;5071123;28;20256;-78
2022/01/13 12:07:48;;;;;;;12.83;9.23;;;10.50;99.90;;;;;;5070967;28;20201;-78
2022/01/13 12:10:37;;;;;;;11.23;8.65;;;10.80;99.90;;;;;;5078195;28;20179;-77
2022/01/13 12:13:37;;;;;;;13.13;9.90;;;11.10;99.90;;;;;;5070967;28;20188;-74
2022/01/13 12:16:05;;;;;;;12.10;8.60;;;11.30;99.90;;;;;;5028525;28;20181;-80
2022/01/13 12:19:18;;;;;;;15.30;9.50;;;11.50;99.90;;;;;;5080921;28;20180;-78
2022/01/13 12:22:00;;;;;;;11.45;8.55;;;11.60;99.90;;;;;;5073309;28;20207;-78
2022/01/13 12:24:45;;;;;;;10.93;7.95;;;11.80;99.90;;;;;;5073024;28;20169;-79
2022/01/13 12:27:11;;;;;;;12.05;8.65;;;11.90;99.90;;;;;;5072246;28;20172;-75
2022/01/13 12:29:46;;;;;;;11.40;8.82;;;11.90;99.90;;;;;;5072558;28;20203;-75
2022/01/13 12:32:16;;;;;;;12.25;8.88;;;12.00;99.90;;;;;;5072847;28;20394;-79
2022/01/13 12:34:48;;;;;;;11.77;8.77;;;12.00;99.90;;;;;;5055982;28;20199;-78
2022/01/13 12:37:14;;;;;;;10.82;8.85;;;12.10;99.90;;;;;;5060467;28;20173;-74
2022/01/13 12:39:45;;;;;;;11.23;8.35;;;12.10;99.90;;;;;;5068507;28;20280;-75
2022/01/13 12:42:24;;;;;;;14.27;8.93;;;12.10;99.90;;;;;;5072478;28;20200;-73
2022/01/13 12:47:39;;;;;;;11.10;8.57;;;12.20;99.90;;;;;;5073711;28;20217;-79
2022/01/13 12:50:15;;;;;;;11.90;8.70;;;12.20;99.90;;;;;;5070421;28;20255;-71
2022/01/13 12:52:43;;;;;;;11.77;8.57;;;12.20;99.90;;;;;;5083822;28;20180;-74
2022/01/13 12:55:12;;;;;;;11.27;8.43;;;12.10;99.90;;;;;;5070166;28;20207;-73
2022/01/13 12:57:51;;;;;;;12.75;9.20;;;12.10;99.90;;;;;;5071975;28;20195;-72
2022/01/13 13:00:19;;;;;;;14.15;9.25;;;11.90;99.90;;;;;;5071000;28;20184;-70
2022/01/13 13:03:06;;;;;;;11.95;8.98;;;11.80;99.90;;;;;;5072194;28;20197;-73
2022/01/13 13:05:44;;;;;;;12.45;8.63;;;11.70;99.90;;;;;;5064535;28;20234;-76
2022/01/13 13:08:15;;;;;;;12.05;8.25;;;11.60;99.90;;;;;;5065432;28;20231;-77
2022/01/13 13:10:44;;;;;;;11.32;8.57;;;11.50;99.90;;;;;;5068769;28;20184;-76
2022/01/13 13:13:13;;;;;;;11.82;7.93;;;11.40;99.90;;;;;;5068741;28;20508;-78
2022/01/13 13:18:06;;;;;;;10.20;7.72;;;11.40;99.90;;;;;;5069797;28;20185;-68
2022/01/13 13:20:36;;;;;;;9.52;7.45;;;11.40;99.90;;;;;;5073232;28;20181;-72
2022/01/13 13:23:06;;;;;;;11.77;8.10;;;11.40;99.90;;;;;;5071731;28;20434;-72
2022/01/13 13:25:48;;;;;;;11.00;7.60;;;11.40;99.90;;;;;;5067659;28;20176;-71
2022/01/13 13:28:32;;;;;;;10.13;7.00;;;11.40;99.90;;;;;;5063803;28;20183;-71
2022/01/13 13:31:03;;;;;;;11.15;7.20;;;11.40;99.90;;;;;;5070900;28;20180;-71
2022/01/13 13:33:35;;;;;;;8.57;6.70;;;11.40;99.90;;;;;;5069055;28;20261;-68
2022/01/13 13:36:09;;;;;;;10.35;7.00;;;11.40;99.90;;;;;;5068940;28;20211;-70
2022/01/13 13:39:07;;;;;;;8.13;6.30;;;11.50;99.90;;;;;;5072063;28;20238;-71
2022/01/13 13:41:35;;;;;;;8.70;5.75;;;11.60;99.90;;;;;;5069008;28;20242;-72